Time,TemperatureF,DewpointF,PressureIn,WindDirection,WindDirectionDegrees,WindSpeedMPH,WindSpeedGustMPH,Humidity,HourlyPrecipIn,Conditions,Clouds,dailyrainin,SolarRadiationWatts/m^2,SoftwareType,DateUTC
2013-03-04 00:01:00,29.0,14.0,-100.00,NNW,347,3.0,6.0,52,0.00,,,0.00,0.000000,,2013-03-04 05:01:00,
2013-03-04 00:22:00,28.0,12.0,-100.00,NNE,16,1.0,6.0,51,0.00,,,0.00,0.000000,,2013-03-04 05:22:00,
2013-03-04 00:32:00,28.0,12.0,-100.00,NNE,16,1.0,6.0,51,0.00,,,0.00,0.000000,,2013-03-04 05:32:00,
2013-03-04 00:43:00,28.0,12.0,-100.00,NNE,16,1.0,6.0,51,0.00,,,0.00,0.000000,,2013-03-04 05:43:00,
2013-03-04 00:52:00,28.0,12.0,-100.00,NNE,16,1.0,6.0,51,0.00,,,0.00,0.000000,,2013-03-04 05:52:00,
2013-03-04 01:02:00,28.0,12.0,-100.00,NNE,16,1.0,6.0,51,0.00,,,0.00,0.000000,,2013-03-04 06:02:00,
2013-03-04 01:32:00,27.0,14.0,-100.00,NW,317,3.0,6.0,58,0.00,,,0.00,0.000000,,2013-03-04 06:32:00,
2013-03-04 01:42:00,27.0,14.0,-100.00,NW,317,3.0,6.0,58,0.00,,,0.00,0.000000,,2013-03-04 06:42:00,
2013-03-04 01:52:00,27.0,14.0,-100.00,NW,317,3.0,6.0,58,0.00,,,0.00,0.000000,,2013-03-04 06:52:00,
2013-03-04 02:02:00,27.0,14.0,-100.00,NW,317,3.0,6.0,58,0.00,,,0.00,0.000000,,2013-03-04 07:02:00,
2013-03-04 02:32:00,27.0,10.0,-100.00,WNW,299,2.0,9.0,48,0.00,,,0.00,0.000000,,2013-03-04 07:32:00,
2013-03-04 02:42:00,27.0,10.0,-100.00,WNW,299,2.0,9.0,48,0.00,,,0.00,0.000000,,2013-03-04 07:42:00,
2013-03-04 02:52:00,27.0,10.0,-100.00,WNW,299,2.0,9.0,48,0.00,,,0.00,0.000000,,2013-03-04 07:52:00,
2013-03-04 03:02:00,27.0,10.0,-100.00,WNW,299,2.0,9.0,48,0.00,,,0.00,0.000000,,2013-03-04 08:02:00,
2013-03-04 03:32:00,25.0,10.0,-100.00,ENE,60,1.0,5.0,52,0.00,,,0.00,0.000000,,2013-03-04 08:32:00,
2013-03-04 03:42:00,25.0,10.0,-100.00,ENE,60,1.0,5.0,52,0.00,,,0.00,0.000000,,2013-03-04 08:42:00,
2013-03-04 03:52:00,25.0,10.0,-100.00,ENE,60,1.0,5.0,52,0.00,,,0.00,0.000000,,2013-03-04 08:52:00,
2013-03-04 04:02:00,25.0,10.0,-100.00,ENE,60,1.0,5.0,52,0.00,,,0.00,0.000000,,2013-03-04 09:02:00,
2013-03-04 04:22:00,24.0,11.0,-100.00,ESE,105,1.0,4.0,56,0.00,,,0.00,0.000000,,2013-03-04 09:22:00,
2013-03-04 04:32:00,24.0,11.0,-100.00,ESE,105,1.0,4.0,56,0.00,,,0.00,0.000000,,2013-03-04 09:32:00,
2013-03-04 04:42:00,24.0,11.0,-100.00,ESE,105,1.0,4.0,56,0.00,,,0.00,0.000000,,2013-03-04 09:42:00,
2013-03-04 04:52:00,24.0,11.0,-100.00,ESE,105,1.0,4.0,56,0.00,,,0.00,0.000000,,2013-03-04 09:52:00,
2013-03-04 05:01:00,24.0,11.0,-100.00,ESE,105,1.0,4.0,56,0.00,,,0.00,0.000000,,2013-03-04 10:01:00,
2013-03-04 05:32:00,29.0,12.0,-100.00,NW,311,5.0,10.0,48,0.00,,,0.00,0.000000,,2013-03-04 10:32:00,
2013-03-04 05:42:00,29.0,12.0,-100.00,NW,311,5.0,10.0,48,0.00,,,0.00,0.000000,,2013-03-04 10:42:00,
2013-03-04 05:52:00,29.0,12.0,-100.00,NW,311,5.0,10.0,48,0.00,,,0.00,0.000000,,2013-03-04 10:52:00,
2013-03-04 06:02:00,29.0,12.0,-100.00,NW,311,5.0,10.0,48,0.00,,,0.00,0.000000,,2013-03-04 11:02:00,
2013-03-04 06:22:00,27.0,9.0,-100.00,WSW,249,3.0,12.0,47,0.00,,,0.00,0.000000,,2013-03-04 11:22:00,
2013-03-04 06:32:00,27.0,9.0,-100.00,WSW,249,3.0,12.0,47,0.00,,,0.00,0.000000,,2013-03-04 11:32:00,
2013-03-04 06:42:00,27.0,9.0,-100.00,WSW,249,3.0,12.0,47,0.00,,,0.00,0.000000,,2013-03-04 11:42:00,
2013-03-04 06:52:00,27.0,9.0,-100.00,WSW,249,3.0,12.0,47,0.00,,,0.00,0.000000,,2013-03-04 11:52:00,
2013-03-04 07:02:00,27.0,9.0,-100.00,WSW,249,3.0,12.0,47,0.00,,,0.00,0.000000,,2013-03-04 12:02:00,
2013-03-04 07:22:00,28.0,11.0,-100.00,West,274,3.0,7.0,48,0.00,,,0.00,2.000000,,2013-03-04 12:22:00,
2013-03-04 07:32:00,28.0,11.0,-100.00,West,274,3.0,7.0,48,0.00,,,0.00,2.000000,,2013-03-04 12:32:00,
2013-03-04 07:43:00,28.0,11.0,-100.00,West,274,3.0,7.0,48,0.00,,,0.00,2.000000,,2013-03-04 12:43:00,
2013-03-04 07:53:00,28.0,11.0,-100.00,West,274,3.0,7.0,48,0.00,,,0.00,2.000000,,2013-03-04 12:53:00,
2013-03-04 08:02:00,28.0,11.0,-100.00,West,274,3.0,7.0,48,0.00,,,0.00,2.000000,,2013-03-04 13:02:00,
2013-03-04 08:22:00,31.0,13.0,-100.00,WNW,288,4.0,11.0,47,0.00,,,0.00,27.000000,,2013-03-04 13:22:00,
2013-03-04 08:32:00,31.0,13.0,-100.00,WNW,288,4.0,11.0,47,0.00,,,0.00,27.000000,,2013-03-04 13:32:00,
2013-03-04 08:42:00,31.0,13.0,-100.00,WNW,288,4.0,11.0,47,0.00,,,0.00,27.000000,,2013-03-04 13:42:00,
2013-03-04 08:52:00,31.0,13.0,-100.00,WNW,288,4.0,11.0,47,0.00,,,0.00,27.000000,,2013-03-04 13:52:00,
2013-03-04 09:01:00,31.0,13.0,-100.00,WNW,288,4.0,11.0,47,0.00,,,0.00,27.000000,,2013-03-04 14:01:00,
2013-03-04 09:32:00,33.0,12.0,-100.00,NNW,328,7.0,14.0,42,0.00,,,0.00,97.000000,,2013-03-04 14:32:00,
2013-03-04 09:42:00,33.0,12.0,-100.00,NNW,328,7.0,14.0,42,0.00,,,0.00,97.000000,,2013-03-04 14:42:00,
2013-03-04 09:52:00,33.0,12.0,-100.00,NNW,328,7.0,14.0,42,0.00,,,0.00,97.000000,,2013-03-04 14:52:00,
2013-03-04 10:02:00,33.0,12.0,-100.00,NNW,328,7.0,14.0,42,0.00,,,0.00,97.000000,,2013-03-04 15:02:00,
2013-03-04 10:32:00,37.0,11.0,-100.00,NNW,335,5.0,12.0,33,0.00,,,0.00,481.000000,,2013-03-04 15:32:00,
2013-03-04 10:42:00,37.0,11.0,-100.00,NNW,335,5.0,12.0,33,0.00,,,0.00,481.000000,,2013-03-04 15:42:00,
2013-03-04 10:52:00,37.0,11.0,-100.00,NNW,335,5.0,12.0,33,0.00,,,0.00,481.000000,,2013-03-04 15:52:00,
2013-03-04 11:03:00,37.0,11.0,-100.00,NNW,335,5.0,12.0,33,0.00,,,0.00,481.000000,,2013-03-04 16:03:00,
2013-03-04 11:32:00,42.0,11.0,-100.00,NW,321,5.0,10.0,28,0.00,,,0.00,746.000000,,2013-03-04 16:32:00,
2013-03-04 11:42:00,42.0,11.0,-100.00,NW,321,5.0,10.0,28,0.00,,,0.00,746.000000,,2013-03-04 16:42:00,
2013-03-04 11:52:00,42.0,11.0,-100.00,NW,321,5.0,10.0,28,0.00,,,0.00,746.000000,,2013-03-04 16:52:00,
2013-03-04 12:02:00,42.0,11.0,-100.00,NW,321,5.0,10.0,28,0.00,,,0.00,746.000000,,2013-03-04 17:02:00,
2013-03-04 12:22:00,45.0,11.0,-100.00,SE,135,6.0,10.0,25,0.00,,,0.00,862.000000,,2013-03-04 17:22:00,
2013-03-04 12:32:00,45.0,11.0,-100.00,SE,135,6.0,10.0,25,0.00,,,0.00,862.000000,,2013-03-04 17:32:00,
2013-03-04 12:42:00,45.0,11.0,-100.00,SE,135,6.0,10.0,25,0.00,,,0.00,862.000000,,2013-03-04 17:42:00,
2013-03-04 12:52:00,45.0,11.0,-100.00,SE,135,6.0,10.0,25,0.00,,,0.00,862.000000,,2013-03-04 17:52:00,
2013-03-04 13:02:00,45.0,11.0,-100.00,SE,135,6.0,10.0,25,0.00,,,0.00,862.000000,,2013-03-04 18:02:00,
2013-03-04 13:32:00,49.0,11.0,-100.00,SW,220,4.0,17.0,21,0.00,,,0.00,911.000000,,2013-03-04 18:32:00,
2013-03-04 13:42:00,49.0,11.0,-100.00,SW,220,4.0,17.0,21,0.00,,,0.00,911.000000,,2013-03-04 18:42:00,
2013-03-04 13:52:00,49.0,11.0,-100.00,SW,220,4.0,17.0,21,0.00,,,0.00,911.000000,,2013-03-04 18:52:00,
2013-03-04 14:02:00,49.0,11.0,-100.00,SW,220,4.0,17.0,21,0.00,,,0.00,911.000000,,2013-03-04 19:02:00,
2013-03-04 14:32:00,51.0,14.0,-100.00,SSW,213,7.0,13.0,22,0.00,,,0.00,839.000000,,2013-03-04 19:32:00,
2013-03-04 14:42:00,51.0,14.0,-100.00,SSW,213,7.0,13.0,22,0.00,,,0.00,839.000000,,2013-03-04 19:42:00,
2013-03-04 14:52:00,51.0,14.0,-100.00,SSW,213,7.0,13.0,22,0.00,,,0.00,839.000000,,2013-03-04 19:52:00,
2013-03-04 15:02:00,51.0,14.0,-100.00,SSW,213,7.0,13.0,22,0.00,,,0.00,839.000000,,2013-03-04 20:02:00,
2013-03-04 15:33:00,53.0,13.0,-100.00,SW,221,5.0,13.0,20,0.00,,,0.00,768.000000,,2013-03-04 20:33:00,
2013-03-04 15:42:00,53.0,13.0,-100.00,SW,221,5.0,13.0,20,0.00,,,0.00,768.000000,,2013-03-04 20:42:00,
2013-03-04 15:53:00,53.0,13.0,-100.00,SW,221,5.0,13.0,20,0.00,,,0.00,768.000000,,2013-03-04 20:53:00,
2013-03-04 16:02:00,53.0,13.0,-100.00,SW,221,5.0,13.0,20,0.00,,,0.00,768.000000,,2013-03-04 21:02:00,
2013-03-04 16:32:00,54.0,11.0,-100.00,WSW,247,7.0,11.0,18,0.00,,,0.00,611.000000,,2013-03-04 21:32:00,
2013-03-04 16:43:00,54.0,11.0,-100.00,WSW,247,7.0,11.0,18,0.00,,,0.00,611.000000,,2013-03-04 21:43:00,
2013-03-04 16:53:00,54.0,11.0,-100.00,WSW,247,7.0,11.0,18,0.00,,,0.00,611.000000,,2013-03-04 21:53:00,
2013-03-04 17:02:00,54.0,11.0,-100.00,WSW,247,7.0,11.0,18,0.00,,,0.00,611.000000,,2013-03-04 22:02:00,
2013-03-04 17:22:00,54.0,7.0,-100.00,SW,230,7.0,12.0,15,0.00,,,0.00,398.000000,,2013-03-04 22:22:00,
2013-03-04 17:32:00,54.0,7.0,-100.00,SW,230,7.0,12.0,15,0.00,,,0.00,398.000000,,2013-03-04 22:32:00,
2013-03-04 17:43:00,54.0,7.0,-100.00,SW,230,7.0,12.0,15,0.00,,,0.00,398.000000,,2013-03-04 22:43:00,
2013-03-04 17:52:00,54.0,7.0,-100.00,SW,230,7.0,12.0,15,0.00,,,0.00,398.000000,,2013-03-04 22:52:00,
2013-03-04 18:02:00,54.0,7.0,-100.00,SW,230,7.0,12.0,15,0.00,,,0.00,398.000000,,2013-03-04 23:02:00,
2013-03-04 18:32:00,52.0,9.0,-100.00,SW,232,4.0,12.0,17,0.00,,,0.00,152.000000,,2013-03-04 23:32:00,
2013-03-04 18:42:00,52.0,9.0,-100.00,SW,232,4.0,12.0,17,0.00,,,0.00,152.000000,,2013-03-04 23:42:00,
2013-03-04 18:52:00,52.0,9.0,-100.00,SW,232,4.0,12.0,17,0.00,,,0.00,152.000000,,2013-03-04 23:52:00,
2013-03-04 19:02:00,52.0,9.0,-100.00,SW,232,4.0,12.0,17,0.00,,,0.00,152.000000,,2013-03-05 00:02:00,
2013-03-04 19:32:00,44.0,13.0,-100.00,NW,314,0.0,4.0,28,0.00,,,0.00,5.000000,,2013-03-05 00:32:00,
2013-03-04 19:42:00,44.0,13.0,-100.00,NW,314,0.0,4.0,28,0.00,,,0.00,5.000000,,2013-03-05 00:42:00,
2013-03-04 19:52:00,44.0,13.0,-100.00,NW,314,0.0,4.0,28,0.00,,,0.00,5.000000,,2013-03-05 00:52:00,
2013-03-04 20:02:00,44.0,13.0,-100.00,NW,314,0.0,4.0,28,0.00,,,0.00,5.000000,,2013-03-05 01:02:00,
2013-03-04 20:33:00,40.0,15.0,-100.00,WNW,286,0.0,2.0,36,0.00,,,0.00,0.000000,,2013-03-05 01:33:00,
2013-03-04 20:42:00,40.0,15.0,-100.00,WNW,286,0.0,2.0,36,0.00,,,0.00,0.000000,,2013-03-05 01:42:00,
2013-03-04 20:52:00,40.0,15.0,-100.00,WNW,286,0.0,2.0,36,0.00,,,0.00,0.000000,,2013-03-05 01:52:00,
2013-03-04 21:02:00,40.0,15.0,-100.00,WNW,286,0.0,2.0,36,0.00,,,0.00,0.000000,,2013-03-05 02:02:00,
2013-03-04 21:32:00,40.0,14.0,-100.00,West,270,1.0,2.0,34,0.00,,,0.00,0.000000,,2013-03-05 02:32:00,
2013-03-04 21:42:00,40.0,14.0,-100.00,West,270,1.0,2.0,34,0.00,,,0.00,0.000000,,2013-03-05 02:42:00,
2013-03-04 21:53:00,40.0,14.0,-100.00,West,270,1.0,2.0,34,0.00,,,0.00,0.000000,,2013-03-05 02:53:00,
2013-03-04 22:02:00,40.0,14.0,-100.00,West,270,1.0,2.0,34,0.00,,,0.00,0.000000,,2013-03-05 03:02:00,
2013-03-04 22:22:00,39.0,18.0,-100.00,NW,310,1.0,2.0,43,0.00,,,0.00,0.000000,,2013-03-05 03:22:00,
2013-03-04 22:32:00,39.0,18.0,-100.00,NW,310,1.0,2.0,43,0.00,,,0.00,0.000000,,2013-03-05 03:32:00,
2013-03-04 22:42:00,39.0,18.0,-100.00,NW,310,1.0,2.0,43,0.00,,,0.00,0.000000,,2013-03-05 03:42:00,
2013-03-04 22:52:00,39.0,18.0,-100.00,NW,310,1.0,2.0,43,0.00,,,0.00,0.000000,,2013-03-05 03:52:00,
2013-03-04 23:02:00,39.0,18.0,-100.00,NW,310,1.0,2.0,43,0.00,,,0.00,0.000000,,2013-03-05 04:02:00,
2013-03-04 23:32:00,36.0,21.0,-100.00,NW,305,1.0,2.0,54,0.00,,,0.00,0.000000,,2013-03-05 04:32:00,
2013-03-04 23:42:00,36.0,21.0,-100.00,NW,305,1.0,2.0,54,0.00,,,0.00,0.000000,,2013-03-05 04:42:00,
2013-03-04 23:52:00,36.0,21.0,-100.00,NW,305,1.0,2.0,54,0.00,,,0.00,0.000000,,2013-03-05 04:52:00,